NZOH/OHA METAR and TAF weather

Enter ICAO airport designator
Station Type Date Time Source
NZOH METAR 2019/04/25 06:00 UTC NOAA

NZOH 250600Z 28006KT 30KM FEW010 BKN030 16/14 Q1013 TEMPO BKN010


Station Type Date Time Source
NZOH Decoded METAR 2019/04/25 06:00 UTC NOAA

Ohakea, New Zealand (NZOH) 40-12S 175-22E 52M
Apr 25, 2019 - 02:00 AM EDT / 2019.04.25 0600 UTC
Wind: from the W (280 degrees) at 7 MPH (6 KT):0
Sky conditions: mostly cloudy
Temperature: 60 F (16 C)
Dew Point: 57 F (14 C)
Relative Humidity: 87%
Pressure (altimeter): 29.91 in. Hg (1013 hPa)
ob: NZOH 250600Z 28006KT 30KM FEW010 BKN030 16/14 Q1013 TEMPO BKN010
cycle: 6

Station Type Date Time Source
NZOH TAF 2007/12/14 04:59 UTC NOAA

TAF NZOH 140459Z 140606 11020KT 30KM SCT080 BECMH 0911 03008KT
BECMG 2224 27012KT

Example: see airport list